Main page
METAR-TAF:

METAR-TAF

Airports :

Lord Howe Island Airport

Lord Howe Island, Australia

latitude: 31-32-18S, longitude: 159-04-38E, elevation: 5 m

Current weather observation

The report was made 24 minutes ago, at 17:30 UTC
Wind 8 kt from the Southwest
Temperature 18°C
Humidity 77%
Pressure 1016 hPa
Visibility 10 km or more
Few clouds at a height of 2600 ft
Scattered clouds at a height of 4200 ft

METAR: YLHI 211730Z AUTO 22008KT 9999 // FEW026 SCT042 18/14 Q1016

Time: 03:54 (17:54 UTC)

Forecast

The report was made 53 minutes ago, at 17:01 UTC
Forecast valid from 21 at 18 UTC to 22 at 18 UTC
Wind 10 kt from the Southwest
Visibility 10 km or more
Scattered clouds at a height of 2500 ft
Scattered clouds at a height of 4000 ft

TAF: YLHI 211701Z 2118/2218 23010KT 9999 SCT025 SCT040

Weather observations and forecasts of more than 4000 airports (METAR and TAF reports).

The available stations are represented by yellow and red dots on the map.

Hover mouse over dot to see the name of the station.

Then click to see weather observations and forecasts.

To change the map : click on the green buttons with a black cross to zoom in, on the green button with a dash to zoom out, or on the green arrows for adjacent maps.


METAR-TAF: